createdAt,value
2023-02-11T00:00:10.505Z,6.23
2023-02-11T00:01:10.536Z,6.24
2023-02-11T00:02:10.513Z,6.25
2023-02-11T00:03:10.774Z,6.26
2023-02-11T00:04:11.036Z,6.26
2023-02-11T00:05:10.657Z,6.23
2023-02-11T00:06:10.521Z,6.18
2023-02-11T00:07:10.742Z,6.17
2023-02-11T00:08:11.049Z,6.17
2023-02-11T00:09:11.287Z,6.18
2023-02-11T00:10:10.566Z,6.2
2023-02-11T00:11:10.505Z,6.16
2023-02-11T00:12:10.529Z,6.15
2023-02-11T00:13:10.500Z,6.16
2023-02-11T00:14:10.565Z,6.14
2023-02-11T00:15:10.501Z,6.14
2023-02-11T00:16:10.539Z,6.14
2023-02-11T00:17:10.524Z,6.1
2023-02-11T00:18:10.506Z,6.12
2023-02-11T00:19:10.502Z,6.12
2023-02-11T00:20:10.509Z,6.11
2023-02-11T00:21:10.507Z,6.08
2023-02-11T00:22:10.524Z,6.07
2023-02-11T00:23:10.782Z,6.04
2023-02-11T00:24:10.512Z,6.05
2023-02-11T00:25:10.517Z,6.04
2023-02-11T00:26:10.591Z,6.01
2023-02-11T00:27:10.534Z,5.99
2023-02-11T00:28:10.606Z,5.97
2023-02-11T00:29:10.508Z,5.96
2023-02-11T00:30:10.500Z,5.95
2023-02-11T00:31:10.576Z,5.92
2023-02-11T00:32:10.511Z,5.91
2023-02-11T00:33:10.529Z,5.89
2023-02-11T00:34:10.503Z,5.9
2023-02-11T00:35:10.503Z,5.89
2023-02-11T00:36:10.671Z,5.89
2023-02-11T00:37:10.510Z,5.88
2023-02-11T00:38:10.503Z,5.87
2023-02-11T00:39:10.510Z,5.87
2023-02-11T00:40:10.507Z,5.87
2023-02-11T00:41:10.514Z,5.86
2023-02-11T00:42:10.504Z,5.88
2023-02-11T00:43:10.497Z,5.88
2023-02-11T00:44:10.500Z,5.91
2023-02-11T00:45:10.499Z,5.92
2023-02-11T00:46:10.533Z,5.9
2023-02-11T00:47:10.496Z,5.93
2023-02-11T00:48:10.581Z,5.95
2023-02-11T00:49:10.497Z,5.95
2023-02-11T00:50:10.503Z,5.93
2023-02-11T00:51:10.503Z,5.94
2023-02-11T00:52:10.501Z,5.96
2023-02-11T00:53:10.498Z,5.95
2023-02-11T00:54:10.503Z,5.95
2023-02-11T00:55:10.581Z,5.93
2023-02-11T00:56:10.498Z,5.93
2023-02-11T00:57:10.499Z,5.93
2023-02-11T00:58:10.536Z,5.94
2023-02-11T00:59:10.495Z,5.94
2023-02-11T01:00:10.494Z,5.96
2023-02-11T01:01:10.527Z,5.95
2023-02-11T01:02:10.503Z,5.97
2023-02-11T01:03:10.501Z,5.98
2023-02-11T01:04:10.583Z,5.97
2023-02-11T01:05:10.577Z,5.96
2023-02-11T01:06:10.499Z,5.97
2023-02-11T01:07:10.512Z,5.93
2023-02-11T01:08:10.522Z,5.93
2023-02-11T01:09:10.592Z,5.94
2023-02-11T01:10:10.499Z,5.94
2023-02-11T01:11:10.514Z,5.95
2023-02-11T01:12:10.504Z,5.97
2023-02-11T01:13:10.510Z,5.98
2023-02-11T01:14:10.498Z,5.98
2023-02-11T01:15:10.498Z,5.99
2023-02-11T01:16:10.539Z,5.98
2023-02-11T01:17:10.501Z,6.01
2023-02-11T01:18:10.504Z,6.01
2023-02-11T01:19:10.500Z,5.99
2023-02-11T01:20:10.505Z,5.99
2023-02-11T01:21:10.503Z,5.99
2023-02-11T01:22:10.509Z,5.98
2023-02-11T01:23:10.504Z,5.98
2023-02-11T01:24:10.508Z,5.98
2023-02-11T01:25:10.565Z,5.98
2023-02-11T01:26:11.042Z,5.98
2023-02-11T01:27:10.931Z,6
2023-02-11T01:28:10.308Z,6.01
2023-02-11T01:29:10.485Z,6
2023-02-11T01:30:10.826Z,6.01
2023-02-11T01:31:10.562Z,6
2023-02-11T01:32:10.770Z,6
2023-02-11T01:33:10.499Z,6.01
2023-02-11T01:34:10.561Z,6.01
2023-02-11T01:35:10.529Z,6
2023-02-11T01:36:10.520Z,6.01
2023-02-11T01:37:10.517Z,6.01
2023-02-11T01:38:10.553Z,6
2023-02-11T01:39:10.497Z,5.99
2023-02-11T01:40:10.519Z,5.98
2023-02-11T01:41:10.531Z,5.98
2023-02-11T01:42:10.507Z,6
2023-02-11T01:43:10.525Z,6
2023-02-11T01:44:10.505Z,5.98
2023-02-11T01:45:10.511Z,5.96
2023-02-11T01:46:10.540Z,5.97
2023-02-11T01:47:10.533Z,5.96
2023-02-11T01:48:10.506Z,5.94
2023-02-11T01:49:10.547Z,5.94
2023-02-11T01:50:10.502Z,5.93
2023-02-11T01:51:10.505Z,5.94
2023-02-11T01:52:10.540Z,5.93
2023-02-11T01:53:10.726Z,5.94
2023-02-11T01:54:10.562Z,5.93
2023-02-11T01:55:10.521Z,5.91
2023-02-11T01:56:10.646Z,5.9
2023-02-11T01:57:10.509Z,5.9
2023-02-11T01:58:10.504Z,5.9
2023-02-11T01:59:10.530Z,5.86
2023-02-11T02:00:10.527Z,5.86
2023-02-11T02:01:10.535Z,5.85
2023-02-11T02:02:10.503Z,5.82
2023-02-11T02:03:10.504Z,5.79
2023-02-11T02:04:10.593Z,5.76
2023-02-11T02:05:10.515Z,5.72
2023-02-11T02:06:10.550Z,5.71
2023-02-11T02:07:10.524Z,5.74
2023-02-11T02:08:10.511Z,5.73
2023-02-11T02:09:10.515Z,5.74
2023-02-11T02:10:10.518Z,5.72
2023-02-11T02:11:10.535Z,5.71
2023-02-11T02:12:10.601Z,5.68
2023-02-11T02:13:10.517Z,5.66
2023-02-11T02:14:10.514Z,5.64
2023-02-11T02:15:10.603Z,5.62
2023-02-11T02:16:10.528Z,5.65
2023-02-11T02:17:10.536Z,5.65
2023-02-11T02:18:10.503Z,5.65
2023-02-11T02:19:10.527Z,5.66
2023-02-11T02:20:10.508Z,5.66
2023-02-11T02:21:10.514Z,5.68
2023-02-11T02:22:10.502Z,5.69
2023-02-11T02:23:10.502Z,5.7
2023-02-11T02:24:12.575Z,5.68
2023-02-11T02:25:10.507Z,5.68
2023-02-11T02:26:10.500Z,5.67
2023-02-11T02:27:10.503Z,5.68
2023-02-11T02:28:10.522Z,5.68
2023-02-11T02:29:10.496Z,5.68
2023-02-11T02:30:10.509Z,5.69
2023-02-11T02:31:10.608Z,5.71
2023-02-11T02:32:10.528Z,5.72
2023-02-11T02:33:22.229Z,5.74
2023-02-11T02:34:10.501Z,5.76
2023-02-11T02:35:10.518Z,5.78
2023-02-11T02:36:10.611Z,5.77
2023-02-11T02:37:10.495Z,5.74
2023-02-11T02:38:10.509Z,5.75
2023-02-11T02:39:10.505Z,5.76
2023-02-11T02:40:10.506Z,5.73
2023-02-11T02:41:10.509Z,5.75
2023-02-11T02:42:10.508Z,5.74
2023-02-11T02:43:10.610Z,5.77
2023-02-11T02:44:10.720Z,5.77
2023-02-11T02:45:10.498Z,5.75
2023-02-11T02:46:10.593Z,5.78
2023-02-11T02:47:10.763Z,5.78
2023-02-11T02:48:10.505Z,5.77
2023-02-11T02:49:10.546Z,5.77
2023-02-11T02:50:10.504Z,5.77
2023-02-11T02:51:10.507Z,5.76
2023-02-11T02:52:10.503Z,5.77
2023-02-11T02:53:10.517Z,5.76
2023-02-11T02:54:10.518Z,5.73
2023-02-11T02:55:10.508Z,5.76
2023-02-11T02:56:10.501Z,5.77
2023-02-11T02:57:10.509Z,5.76
2023-02-11T02:58:10.518Z,5.74
2023-02-11T02:59:10.526Z,5.74
2023-02-11T03:00:10.689Z,5.74
2023-02-11T03:01:10.736Z,5.74
2023-02-11T03:02:10.645Z,5.74
2023-02-11T03:03:10.918Z,5.73
2023-02-11T03:04:10.814Z,5.74
2023-02-11T03:05:11.420Z,5.74
2023-02-11T03:06:10.989Z,5.73
2023-02-11T03:07:10.765Z,5.74
2023-02-11T03:08:10.637Z,5.75
2023-02-11T03:09:12.164Z,5.76
2023-02-11T03:10:10.764Z,5.78
2023-02-11T03:11:10.685Z,5.77
2023-02-11T03:12:10.575Z,5.77
2023-02-11T03:13:10.816Z,5.77
2023-02-11T03:14:10.519Z,5.78
2023-02-11T03:15:10.529Z,5.78
2023-02-11T03:16:10.574Z,5.76
2023-02-11T03:17:10.630Z,5.76
2023-02-11T03:18:10.504Z,5.76
2023-02-11T03:19:10.528Z,5.76
2023-02-11T03:20:10.523Z,5.76
2023-02-11T03:21:10.507Z,5.77
2023-02-11T03:22:10.508Z,5.77
2023-02-11T03:23:10.512Z,5.77
2023-02-11T03:24:10.503Z,5.77
2023-02-11T03:25:10.508Z,5.76
2023-02-11T03:26:10.508Z,5.76
2023-02-11T03:27:10.506Z,5.77
2023-02-11T03:28:10.532Z,5.75
2023-02-11T03:29:10.504Z,5.77
2023-02-11T03:30:10.508Z,5.77
2023-02-11T03:31:10.658Z,5.77
2023-02-11T03:32:10.551Z,5.76
2023-02-11T03:33:10.507Z,5.76
2023-02-11T03:34:10.528Z,5.75
2023-02-11T03:35:10.506Z,5.75
2023-02-11T03:36:10.511Z,5.76
2023-02-11T03:37:10.501Z,5.75
2023-02-11T03:38:10.511Z,5.75
2023-02-11T03:39:10.503Z,5.75
2023-02-11T03:40:10.532Z,5.74
2023-02-11T03:41:10.524Z,5.74
2023-02-11T03:42:10.510Z,5.74
2023-02-11T03:43:10.522Z,5.75
2023-02-11T03:44:10.650Z,5.73
2023-02-11T03:45:10.511Z,5.75
2023-02-11T03:46:10.665Z,5.75
2023-02-11T03:47:10.525Z,5.75
2023-02-11T03:48:10.608Z,5.74
2023-02-11T03:49:10.508Z,5.73
2023-02-11T03:50:10.513Z,5.74
2023-02-11T03:51:10.499Z,5.75
2023-02-11T03:52:10.516Z,5.74
2023-02-11T03:53:10.506Z,5.76
2023-02-11T03:54:10.523Z,5.74
2023-02-11T03:55:10.520Z,5.74
2023-02-11T03:56:10.506Z,5.74
2023-02-11T03:57:10.530Z,5.73
2023-02-11T03:58:10.523Z,5.74
2023-02-11T03:59:10.510Z,5.72
2023-02-11T04:00:10.505Z,5.72
2023-02-11T04:01:10.529Z,5.72
2023-02-11T04:02:10.629Z,5.73
2023-02-11T04:03:10.571Z,5.7
2023-02-11T04:04:10.509Z,5.7
2023-02-11T04:05:10.508Z,5.7
2023-02-11T04:06:10.516Z,5.71
2023-02-11T04:07:10.517Z,5.71
2023-02-11T04:08:10.501Z,5.72
2023-02-11T04:09:10.512Z,5.72
2023-02-11T04:10:10.497Z,5.75
2023-02-11T04:11:10.506Z,5.74
2023-02-11T04:12:10.503Z,5.73
2023-02-11T04:13:10.528Z,5.74
2023-02-11T04:14:10.503Z,5.73
2023-02-11T04:15:10.509Z,5.73
2023-02-11T04:16:10.530Z,5.74
2023-02-11T04:17:10.513Z,5.73
2023-02-11T04:18:10.506Z,5.72
2023-02-11T04:19:10.507Z,5.71
2023-02-11T04:20:10.528Z,5.7
2023-02-11T04:21:10.517Z,5.71
2023-02-11T04:22:10.506Z,5.7
2023-02-11T04:23:10.511Z,5.68
2023-02-11T04:24:10.512Z,5.68
2023-02-11T04:25:10.500Z,5.7
2023-02-11T04:26:10.498Z,5.71
2023-02-11T04:27:10.507Z,5.71
2023-02-11T04:28:10.549Z,5.71
2023-02-11T04:29:10.514Z,5.72
2023-02-11T04:30:10.516Z,5.74
2023-02-11T04:31:10.657Z,5.74
2023-02-11T04:32:10.550Z,5.72
2023-02-11T04:33:10.513Z,5.72
2023-02-11T04:34:10.508Z,5.71
2023-02-11T04:35:10.500Z,5.7
2023-02-11T04:36:10.506Z,5.69
2023-02-11T04:37:10.506Z,5.68
2023-02-11T04:38:10.504Z,5.68
2023-02-11T04:39:10.502Z,5.66
2023-02-11T04:40:10.517Z,5.67
2023-02-11T04:41:10.510Z,5.68
2023-02-11T04:42:10.500Z,5.67
2023-02-11T04:43:10.503Z,5.67
2023-02-11T04:44:10.525Z,5.66
2023-02-11T04:45:10.603Z,5.64
2023-02-11T04:46:10.547Z,5.65
2023-02-11T04:47:10.506Z,5.66
2023-02-11T04:48:10.499Z,5.65
2023-02-11T04:49:10.506Z,5.64
2023-02-11T04:50:10.502Z,5.64
2023-02-11T04:51:10.512Z,5.63
2023-02-11T04:52:10.501Z,5.64
2023-02-11T04:53:10.521Z,5.63
2023-02-11T04:54:10.518Z,5.64
2023-02-11T04:55:10.522Z,5.63
2023-02-11T04:56:10.515Z,5.62
2023-02-11T04:57:10.508Z,5.6
2023-02-11T04:58:10.516Z,5.6
2023-02-11T04:59:10.604Z,5.6
2023-02-11T05:00:10.554Z,5.58
2023-02-11T05:01:10.942Z,5.58
2023-02-11T05:02:10.879Z,5.55
2023-02-11T05:03:10.188Z,5.53
2023-02-11T05:04:10.589Z,5.51
2023-02-11T05:05:10.764Z,5.51
2023-02-11T05:06:11.031Z,5.5
2023-02-11T05:07:10.729Z,5.5
2023-02-11T05:08:10.539Z,5.5
2023-02-11T05:09:10.521Z,5.49
2023-02-11T05:10:10.497Z,5.48
2023-02-11T05:11:10.515Z,5.5
2023-02-11T05:12:10.504Z,5.5
2023-02-11T05:13:10.508Z,5.51
2023-02-11T05:14:10.527Z,5.49
2023-02-11T05:15:10.704Z,5.48
2023-02-11T05:16:10.502Z,5.46
2023-02-11T05:17:10.517Z,5.46
2023-02-11T05:18:10.509Z,5.47
2023-02-11T05:19:10.559Z,5.47
2023-02-11T05:20:10.501Z,5.46
2023-02-11T05:21:10.513Z,5.46
2023-02-11T05:22:10.508Z,5.45
2023-02-11T05:23:10.507Z,5.44
2023-02-11T05:24:10.536Z,5.42
2023-02-11T05:25:10.514Z,5.42
2023-02-11T05:26:10.509Z,5.39
2023-02-11T05:27:10.513Z,5.38
2023-02-11T05:28:10.529Z,5.38
2023-02-11T05:29:10.597Z,5.36
2023-02-11T05:30:10.506Z,5.34
2023-02-11T05:31:10.656Z,5.32
2023-02-11T05:32:10.504Z,5.32
2023-02-11T05:33:10.505Z,5.31
2023-02-11T05:34:10.531Z,5.28
2023-02-11T05:35:10.516Z,5.27
2023-02-11T05:36:10.526Z,5.28
2023-02-11T05:37:10.517Z,5.27
2023-02-11T05:38:10.516Z,5.25
2023-02-11T05:39:10.514Z,5.24
2023-02-11T05:40:10.508Z,5.24
2023-02-11T05:41:10.568Z,5.22
2023-02-11T05:42:10.515Z,5.22
2023-02-11T05:43:10.501Z,5.21
2023-02-11T05:44:10.506Z,5.19
2023-02-11T05:45:10.512Z,5.18
2023-02-11T05:46:10.565Z,5.19
2023-02-11T05:47:10.524Z,5.18
2023-02-11T05:48:10.498Z,5.19
2023-02-11T05:49:10.508Z,5.18
2023-02-11T05:50:10.514Z,5.18
2023-02-11T05:51:10.507Z,5.18
2023-02-11T05:52:10.508Z,5.17
2023-02-11T05:53:10.514Z,5.16
2023-02-11T05:54:10.507Z,5.14
2023-02-11T05:55:10.516Z,5.15
2023-02-11T05:56:10.568Z,5.13
2023-02-11T05:57:10.517Z,5.13
2023-02-11T05:58:10.511Z,5.13
2023-02-11T05:59:10.505Z,5.11
2023-02-11T06:00:10.563Z,5.11
2023-02-11T06:01:10.504Z,5.12
2023-02-11T06:02:10.544Z,5.12
2023-02-11T06:03:10.509Z,5.1
2023-02-11T06:04:10.503Z,5.08
2023-02-11T06:05:10.514Z,5.08
2023-02-11T06:06:10.509Z,5.08
2023-02-11T06:07:10.507Z,5.08
2023-02-11T06:08:10.512Z,5.06
2023-02-11T06:09:10.517Z,5.06
2023-02-11T06:10:10.520Z,5.03
2023-02-11T06:11:10.736Z,5.05
2023-02-11T06:12:10.498Z,5.03
2023-02-11T06:13:10.507Z,5.05
2023-02-11T06:14:10.503Z,5.03
2023-02-11T06:15:10.513Z,5.03
2023-02-11T06:16:10.666Z,5.05
2023-02-11T06:17:10.513Z,5.04
2023-02-11T06:18:10.549Z,5.04
2023-02-11T06:19:10.504Z,5.04
2023-02-11T06:20:10.734Z,5.04
2023-02-11T06:21:10.543Z,5.03
2023-02-11T06:22:10.507Z,5.04
2023-02-11T06:23:10.583Z,5.04
2023-02-11T06:24:10.529Z,5.04
2023-02-11T06:25:10.518Z,5.05
2023-02-11T06:26:10.514Z,5.05
2023-02-11T06:27:10.524Z,5.05
2023-02-11T06:28:10.541Z,5.06
2023-02-11T06:29:10.517Z,5.05
2023-02-11T06:30:10.510Z,5.04
2023-02-11T06:31:10.645Z,5.05
2023-02-11T06:32:33.757Z,5.06
2023-02-11T06:33:10.522Z,5.04
2023-02-11T06:34:10.784Z,5.05
2023-02-11T06:35:13.623Z,5.05
2023-02-11T06:36:10.818Z,5.05
2023-02-11T06:37:11.673Z,5.05
2023-02-11T06:38:11.317Z,5.05
2023-02-11T06:39:11.661Z,5.03
2023-02-11T06:40:10.865Z,5.04
2023-02-11T06:41:10.666Z,5.05
2023-02-11T06:42:10.567Z,5.06
2023-02-11T06:43:10.819Z,5.06
2023-02-11T06:44:11.066Z,5.07
2023-02-11T06:45:10.712Z,5.05
2023-02-11T06:46:10.533Z,5.04
2023-02-11T06:47:10.512Z,5.06
2023-02-11T06:48:10.731Z,5.04
2023-02-11T06:49:10.514Z,5.03
2023-02-11T06:50:10.511Z,5.04
2023-02-11T06:51:10.537Z,5.07
2023-02-11T06:52:10.791Z,5.08
2023-02-11T06:53:10.534Z,5.06
2023-02-11T06:54:10.516Z,5.08
2023-02-11T06:55:10.508Z,5.06
2023-02-11T06:56:10.518Z,5.08
2023-02-11T06:57:10.514Z,5.06
2023-02-11T06:58:10.534Z,5.09
2023-02-11T06:59:10.726Z,5.08
2023-02-11T07:00:10.744Z,5.11
2023-02-11T07:01:10.729Z,5.1
2023-02-11T07:02:10.840Z,5.1
2023-02-11T07:03:10.779Z,5.09
2023-02-11T07:04:10.748Z,5.1
2023-02-11T07:05:10.727Z,5.11
2023-02-11T07:06:10.842Z,5.1
2023-02-11T07:07:10.895Z,5.12
2023-02-11T07:08:10.738Z,5.11
2023-02-11T07:09:10.732Z,5.1
2023-02-11T07:10:10.751Z,5.11
2023-02-11T07:11:10.737Z,5.12
2023-02-11T07:12:10.746Z,5.13
2023-02-11T07:13:10.735Z,5.13
2023-02-11T07:14:10.741Z,5.15
2023-02-11T07:15:10.740Z,5.16
2023-02-11T07:16:10.791Z,5.17
2023-02-11T07:17:10.742Z,5.19
2023-02-11T07:18:12.508Z,5.19
2023-02-11T07:19:11.189Z,5.18
2023-02-11T07:20:10.513Z,5.18
2023-02-11T07:21:10.575Z,5.19
2023-02-11T07:22:10.512Z,5.18
2023-02-11T07:23:10.526Z,5.19
2023-02-11T07:24:11.668Z,5.19
2023-02-11T07:25:10.511Z,5.2
2023-02-11T07:26:10.506Z,5.2
2023-02-11T07:27:10.513Z,5.2
2023-02-11T07:28:10.553Z,5.18
2023-02-11T07:29:10.518Z,5.19
2023-02-11T07:30:10.509Z,5.22
2023-02-11T07:31:10.606Z,5.23
2023-02-11T07:32:10.598Z,5.23
2023-02-11T07:33:10.505Z,5.23
2023-02-11T07:34:10.504Z,5.24
2023-02-11T07:35:10.510Z,5.25
2023-02-11T07:36:10.603Z,5.26
2023-02-11T07:37:10.508Z,5.27
2023-02-11T07:38:10.505Z,5.27
2023-02-11T07:39:10.523Z,5.28
2023-02-11T07:40:10.539Z,5.29
2023-02-11T07:41:10.515Z,5.3
2023-02-11T07:42:10.503Z,5.31
2023-02-11T07:43:10.501Z,5.31
2023-02-11T07:44:10.509Z,5.3
2023-02-11T07:45:10.517Z,5.3
2023-02-11T07:46:10.506Z,5.32
2023-02-11T07:47:10.510Z,5.32
2023-02-11T07:48:10.599Z,5.33
2023-02-11T07:49:10.516Z,5.35
2023-02-11T07:50:10.506Z,5.37
2023-02-11T07:51:10.497Z,5.36
2023-02-11T07:52:10.504Z,5.35
2023-02-11T07:53:10.508Z,5.37
2023-02-11T07:54:10.521Z,5.38
2023-02-11T07:55:10.515Z,5.37
2023-02-11T07:56:10.506Z,5.36
2023-02-11T07:57:10.506Z,5.36
2023-02-11T07:58:10.515Z,5.36
2023-02-11T07:59:10.502Z,5.36
2023-02-11T08:00:10.512Z,5.36
2023-02-11T08:01:10.540Z,5.36
2023-02-11T08:02:10.555Z,5.38
2023-02-11T08:03:10.503Z,5.39
2023-02-11T08:04:10.512Z,5.38
2023-02-11T08:05:10.504Z,5.4
2023-02-11T08:06:10.499Z,5.39
2023-02-11T08:07:10.504Z,5.4
2023-02-11T08:08:10.515Z,5.42
2023-02-11T08:09:10.512Z,5.44
2023-02-11T08:10:10.502Z,5.44
2023-02-11T08:11:10.512Z,5.46
2023-02-11T08:12:10.494Z,5.46
2023-02-11T08:13:10.513Z,5.46
2023-02-11T08:14:10.501Z,5.46
2023-02-11T08:15:10.511Z,5.45
2023-02-11T08:16:10.651Z,5.47
2023-02-11T08:17:10.601Z,5.49
2023-02-11T08:18:10.495Z,5.5
2023-02-11T08:19:10.509Z,5.51
2023-02-11T08:20:10.503Z,5.53
2023-02-11T08:21:10.509Z,5.55
2023-02-11T08:22:10.507Z,5.53
2023-02-11T08:23:10.501Z,5.55
2023-02-11T08:24:10.504Z,5.55
2023-02-11T08:25:10.507Z,5.55
2023-02-11T08:26:10.500Z,5.55
2023-02-11T08:27:10.504Z,5.56
2023-02-11T08:28:10.523Z,5.58
2023-02-11T08:29:10.519Z,5.56
2023-02-11T08:30:10.508Z,5.57
2023-02-11T08:31:10.566Z,5.57
2023-02-11T08:32:10.527Z,5.58
2023-02-11T08:33:10.498Z,5.59
2023-02-11T08:34:10.499Z,5.6
2023-02-11T08:35:10.714Z,5.6
2023-02-11T08:36:11.071Z,5.61
2023-02-11T08:37:10.121Z,5.61
2023-02-11T08:38:10.461Z,5.63
2023-02-11T08:39:19.470Z,5.6
2023-02-11T08:40:10.995Z,5.63
2023-02-11T08:41:10.592Z,5.65
2023-02-11T08:42:10.503Z,5.66
2023-02-11T08:43:10.516Z,5.65
2023-02-11T08:44:10.506Z,5.68
2023-02-11T08:45:10.516Z,5.69
2023-02-11T08:46:10.690Z,5.71
2023-02-11T08:47:10.494Z,5.73
2023-02-11T08:48:10.502Z,5.72
2023-02-11T08:49:10.506Z,5.73
2023-02-11T08:50:10.518Z,5.71
2023-02-11T08:51:10.498Z,5.71
2023-02-11T08:52:10.510Z,5.73
2023-02-11T08:53:10.503Z,5.74
2023-02-11T08:54:10.522Z,5.74
2023-02-11T08:55:10.532Z,5.76
2023-02-11T08:56:13.699Z,5.77
2023-02-11T08:57:10.506Z,5.76
2023-02-11T08:58:10.504Z,5.78
2023-02-11T08:59:10.504Z,5.8
2023-02-11T09:00:10.643Z,5.82
2023-02-11T09:01:10.573Z,5.83
2023-02-11T09:02:10.552Z,5.84
2023-02-11T09:03:10.501Z,5.86
2023-02-11T09:04:10.507Z,5.88
2023-02-11T09:05:10.524Z,5.89
2023-02-11T09:06:10.521Z,5.9
2023-02-11T09:07:10.511Z,5.9
2023-02-11T09:08:10.498Z,5.92
2023-02-11T09:09:10.512Z,5.91
2023-02-11T09:10:10.500Z,5.89
2023-02-11T09:11:10.506Z,5.92
2023-02-11T09:12:10.506Z,5.94
2023-02-11T09:13:10.523Z,5.95
2023-02-11T09:14:10.509Z,5.95
2023-02-11T09:15:10.505Z,5.97
2023-02-11T09:16:10.505Z,5.99
2023-02-11T09:17:10.515Z,5.97
2023-02-11T09:18:10.507Z,5.98
2023-02-11T09:19:10.494Z,5.98
2023-02-11T09:20:11.518Z,5.99
2023-02-11T09:21:10.517Z,6
2023-02-11T09:22:10.532Z,6.02
2023-02-11T09:23:10.502Z,6.05
2023-02-11T09:24:10.495Z,6.06
2023-02-11T09:25:10.502Z,6.08
2023-02-11T09:26:10.523Z,6.11
2023-02-11T09:27:10.554Z,6.14
2023-02-11T09:28:10.571Z,6.15
2023-02-11T09:29:10.523Z,6.15
2023-02-11T09:30:10.496Z,6.18
2023-02-11T09:31:10.720Z,6.21
2023-02-11T09:32:11.042Z,6.23
2023-02-11T09:33:10.883Z,6.24
2023-02-11T09:34:10.886Z,6.27
2023-02-11T09:35:10.886Z,6.32
2023-02-11T09:36:10.880Z,6.34
2023-02-11T09:37:10.893Z,6.33
2023-02-11T09:38:10.898Z,6.34
2023-02-11T09:39:10.905Z,6.36
2023-02-11T09:40:10.897Z,6.34
2023-02-11T09:41:10.907Z,6.35
2023-02-11T09:42:10.894Z,6.37
2023-02-11T09:43:10.915Z,6.38
2023-02-11T09:44:10.929Z,6.39
2023-02-11T09:45:10.903Z,6.4
2023-02-11T09:46:10.931Z,6.42
2023-02-11T09:47:10.897Z,6.46
2023-02-11T09:48:10.897Z,6.47
2023-02-11T09:49:10.918Z,6.49
2023-02-11T09:50:10.961Z,6.49
2023-02-11T09:51:10.720Z,6.46
2023-02-11T09:52:10.552Z,6.44
2023-02-11T09:53:10.785Z,6.44
2023-02-11T09:54:11.032Z,6.42
2023-02-11T09:55:11.306Z,6.41
2023-02-11T09:56:10.529Z,6.43
2023-02-11T09:57:26.697Z,6.47
2023-02-11T09:58:10.706Z,6.48
2023-02-11T09:59:10.523Z,6.51
2023-02-11T10:00:10.653Z,6.54
2023-02-11T10:01:10.552Z,6.53
2023-02-11T10:02:10.695Z,6.55
2023-02-11T10:03:10.514Z,6.57
2023-02-11T10:04:10.773Z,6.57
2023-02-11T10:05:10.522Z,6.58
2023-02-11T10:06:10.790Z,6.59
2023-02-11T10:07:10.515Z,6.6
2023-02-11T10:08:10.673Z,6.62
2023-02-11T10:09:10.518Z,6.65
2023-02-11T10:10:10.616Z,6.66
2023-02-11T10:11:22.759Z,6.68
2023-02-11T10:12:10.893Z,6.64
2023-02-11T10:13:10.505Z,6.67
2023-02-11T10:14:10.777Z,6.62
2023-02-11T10:15:10.864Z,6.63
2023-02-11T10:16:10.869Z,6.63
2023-02-11T10:17:10.954Z,6.63
2023-02-11T10:18:10.796Z,6.63
2023-02-11T10:19:10.765Z,6.63
2023-02-11T10:20:10.504Z,6.65
2023-02-11T10:21:10.783Z,6.66
2023-02-11T10:22:10.528Z,6.64
2023-02-11T10:23:10.620Z,6.64
2023-02-11T10:24:10.510Z,6.62
2023-02-11T10:25:10.513Z,6.61
2023-02-11T10:26:10.526Z,6.61
2023-02-11T10:27:10.713Z,6.62
2023-02-11T10:28:10.545Z,6.64
2023-02-11T10:29:10.510Z,6.64
2023-02-11T10:30:10.509Z,6.65
2023-02-11T10:31:10.581Z,6.65
2023-02-11T10:32:10.551Z,6.65
2023-02-11T10:33:10.504Z,6.64
2023-02-11T10:34:10.507Z,6.65
2023-02-11T10:35:10.516Z,6.68
2023-02-11T10:36:10.518Z,6.7
2023-02-11T10:37:10.508Z,6.69
2023-02-11T10:38:10.514Z,6.71
2023-02-11T10:39:10.504Z,6.7
2023-02-11T10:40:10.512Z,6.71
2023-02-11T10:41:10.508Z,6.68
2023-02-11T10:42:10.498Z,6.69
2023-02-11T10:43:10.508Z,6.67
2023-02-11T10:44:10.509Z,6.66
2023-02-11T10:45:10.512Z,6.64
2023-02-11T10:46:10.518Z,6.62
2023-02-11T10:47:10.503Z,6.61
2023-02-11T10:48:10.506Z,6.6
2023-02-11T10:49:10.501Z,6.61
2023-02-11T10:50:10.527Z,6.62
2023-02-11T10:51:12.293Z,6.61
2023-02-11T10:52:10.507Z,6.62
2023-02-11T10:53:10.678Z,6.6
2023-02-11T10:54:13.795Z,6.63
2023-02-11T10:55:10.726Z,6.64
2023-02-11T10:56:10.520Z,6.61
2023-02-11T10:57:10.505Z,6.61
2023-02-11T10:58:10.504Z,6.61
2023-02-11T10:59:10.509Z,6.64
2023-02-11T11:00:10.509Z,6.65
2023-02-11T11:01:23.712Z,6.66
2023-02-11T11:02:10.528Z,6.66
2023-02-11T11:03:10.509Z,6.65
2023-02-11T11:04:10.505Z,6.66
2023-02-11T11:05:10.508Z,6.64
2023-02-11T11:06:10.514Z,6.65
2023-02-11T11:07:10.633Z,6.63
2023-02-11T11:08:10.503Z,6.64
2023-02-11T11:09:10.494Z,6.66
2023-02-11T11:10:10.498Z,6.69
2023-02-11T11:11:10.526Z,6.69
2023-02-11T11:12:10.501Z,6.69
2023-02-11T11:13:10.502Z,6.68
2023-02-11T11:14:10.505Z,6.69
2023-02-11T11:15:10.573Z,6.7
2023-02-11T11:16:10.560Z,6.68
2023-02-11T11:17:10.516Z,6.69
2023-02-11T11:18:21.190Z,6.7
2023-02-11T11:19:10.506Z,6.68
2023-02-11T11:20:10.507Z,6.69
2023-02-11T11:21:10.499Z,6.69
2023-02-11T11:22:10.510Z,6.71
2023-02-11T11:23:10.502Z,6.73
2023-02-11T11:24:10.505Z,6.73
2023-02-11T11:25:10.503Z,6.73
2023-02-11T11:26:10.521Z,6.71
2023-02-11T11:27:10.512Z,6.72
2023-02-11T11:28:10.546Z,6.72
2023-02-11T11:29:10.498Z,6.74
2023-02-11T11:30:10.512Z,6.76
2023-02-11T11:31:10.673Z,6.79
2023-02-11T11:32:10.565Z,6.78
2023-02-11T11:33:10.517Z,6.76
2023-02-11T11:34:10.508Z,6.75
2023-02-11T11:35:10.505Z,6.78
2023-02-11T11:36:10.504Z,6.78
2023-02-11T11:37:10.513Z,6.77
2023-02-11T11:38:10.504Z,6.77
2023-02-11T11:39:10.513Z,6.76
2023-02-11T11:40:10.517Z,6.75
2023-02-11T11:41:10.504Z,6.75
2023-02-11T11:42:10.513Z,6.75
2023-02-11T11:43:10.513Z,6.75
2023-02-11T11:44:10.506Z,6.78
2023-02-11T11:45:10.501Z,6.78
2023-02-11T11:46:10.532Z,6.78
2023-02-11T11:47:10.499Z,6.8
2023-02-11T11:48:10.498Z,6.82
2023-02-11T11:49:10.511Z,6.81
2023-02-11T11:50:10.506Z,6.81
2023-02-11T11:51:10.532Z,6.83
2023-02-11T11:52:10.504Z,6.8
2023-02-11T11:53:10.515Z,6.78
2023-02-11T11:54:10.506Z,6.81
2023-02-11T11:55:10.506Z,6.79
2023-02-11T11:56:10.530Z,6.8
2023-02-11T11:57:10.517Z,6.81
2023-02-11T11:58:10.542Z,6.8
2023-02-11T11:59:10.494Z,6.8
2023-02-11T12:00:10.497Z,6.82
2023-02-11T12:01:10.534Z,6.85
2023-02-11T12:02:10.528Z,6.85
2023-02-11T12:03:10.579Z,6.83
2023-02-11T12:04:10.502Z,6.87
2023-02-11T12:05:10.513Z,6.86
2023-02-11T12:06:10.507Z,6.88
2023-02-11T12:07:10.495Z,6.88
2023-02-11T12:08:10.497Z,6.88
2023-02-11T12:09:10.724Z,6.88
2023-02-11T12:10:10.817Z,6.88
2023-02-11T12:11:10.184Z,6.87
2023-02-11T12:12:10.422Z,6.9
2023-02-11T12:13:10.794Z,6.9
2023-02-11T12:14:11.028Z,6.92
2023-02-11T12:15:10.667Z,6.93
2023-02-11T12:16:10.968Z,6.94
2023-02-11T12:17:10.491Z,6.95
2023-02-11T12:18:10.491Z,6.96
2023-02-11T12:19:10.498Z,6.94
2023-02-11T12:20:10.495Z,6.97
2023-02-11T12:21:10.537Z,6.97
2023-02-11T12:22:10.503Z,6.99
2023-02-11T12:23:10.494Z,7
2023-02-11T12:24:10.512Z,7.02
2023-02-11T12:25:10.503Z,7.03
2023-02-11T12:26:10.497Z,7.05
2023-02-11T12:27:10.495Z,7.07
2023-02-11T12:28:10.638Z,7.09
2023-02-11T12:29:10.500Z,7.14
2023-02-11T12:30:10.500Z,7.18
2023-02-11T12:31:13.694Z,7.19
2023-02-11T12:32:10.553Z,7.23
2023-02-11T12:33:10.685Z,7.28
2023-02-11T12:34:10.492Z,7.31
2023-02-11T12:35:10.626Z,7.35
2023-02-11T12:36:10.527Z,7.37
2023-02-11T12:37:10.778Z,7.38
2023-02-11T12:38:10.503Z,7.4
2023-02-11T12:39:10.504Z,7.38
2023-02-11T12:40:10.509Z,7.38
2023-02-11T12:41:10.517Z,7.4
2023-02-11T12:42:10.511Z,7.4
2023-02-11T12:43:10.509Z,7.39
2023-02-11T12:44:10.500Z,7.38
2023-02-11T12:45:10.503Z,7.36
2023-02-11T12:46:10.798Z,7.32
2023-02-11T12:47:10.510Z,7.32
2023-02-11T12:48:10.504Z,7.31
2023-02-11T12:49:10.504Z,7.31
2023-02-11T12:50:10.515Z,7.29
2023-02-11T12:51:10.527Z,7.27
2023-02-11T12:52:10.513Z,7.22
2023-02-11T12:53:10.516Z,7.22
2023-02-11T12:54:10.513Z,7.21
2023-02-11T12:55:10.514Z,7.21
2023-02-11T12:56:10.510Z,7.2
2023-02-11T12:57:10.534Z,7.24
2023-02-11T12:58:10.499Z,7.23
2023-02-11T12:59:14.217Z,7.23
2023-02-11T13:00:10.509Z,7.22
2023-02-11T13:01:10.548Z,7.25
2023-02-11T13:02:10.551Z,7.26
2023-02-11T13:03:10.526Z,7.24
2023-02-11T13:04:10.505Z,7.25
2023-02-11T13:05:14.019Z,7.27
2023-02-11T13:06:10.498Z,7.28
2023-02-11T13:07:10.500Z,7.26
2023-02-11T13:08:10.529Z,7.24
2023-02-11T13:09:10.501Z,7.24
2023-02-11T13:10:10.542Z,7.24
2023-02-11T13:11:12.538Z,7.25
2023-02-11T13:12:10.504Z,7.21
2023-02-11T13:13:10.540Z,7.21
2023-02-11T13:14:10.513Z,7.22
2023-02-11T13:15:10.505Z,7.24
2023-02-11T13:16:10.538Z,7.25
2023-02-11T13:17:10.501Z,7.24
2023-02-11T13:18:10.534Z,7.27
2023-02-11T13:19:10.517Z,7.27
2023-02-11T13:20:10.531Z,7.27
2023-02-11T13:21:10.528Z,7.26